sensor_id;sensor_type;location;lat;lon;timestamp;pressure;altitude;pressure_sealevel;temperature;humidity
41250;BME280;26984;59.928;30.306;2022-07-21T00:00:01;101165.94;;;18.95;100.00
41250;BME280;26984;59.928;30.306;2022-07-21T00:02:31;101163.47;;;18.93;100.00
41250;BME280;26984;59.928;30.306;2022-07-21T00:04:58;101157.19;;;18.93;100.00
41250;BME280;26984;59.928;30.306;2022-07-21T00:07:26;101167.03;;;18.94;100.00
41250;BME280;26984;59.928;30.306;2022-07-21T00:09:53;101160.25;;;19.01;100.00
41250;BME280;26984;59.928;30.306;2022-07-21T00:12:21;101166.00;;;19.00;100.00
41250;BME280;26984;59.928;30.306;2022-07-21T00:14:49;101165.72;;;19.01;100.00
41250;BME280;26984;59.928;30.306;2022-07-21T00:17:18;101168.66;;;18.95;100.00
41250;BME280;26984;59.928;30.306;2022-07-21T00:19:45;101166.00;;;19.00;100.00
41250;BME280;26984;59.928;30.306;2022-07-21T00:22:13;101164.59;;;18.97;100.00
41250;BME280;26984;59.928;30.306;2022-07-21T00:24:40;101169.97;;;18.87;100.00
41250;BME280;26984;59.928;30.306;2022-07-21T00:27:08;101169.53;;;19.00;100.00
41250;BME280;26984;59.928;30.306;2022-07-21T00:29:35;101172.50;;;18.99;100.00
41250;BME280;26984;59.928;30.306;2022-07-21T00:32:03;101174.13;;;18.95;100.00
41250;BME280;26984;59.928;30.306;2022-07-21T00:34:33;101192.44;;;18.99;100.00
41250;BME280;26984;59.928;30.306;2022-07-21T00:37:00;101185.03;;;18.95;100.00
41250;BME280;26984;59.928;30.306;2022-07-21T00:39:28;101189.38;;;18.90;100.00
41250;BME280;26984;59.928;30.306;2022-07-21T00:41:55;101187.78;;;18.95;100.00
41250;BME280;26984;59.928;30.306;2022-07-21T00:44:24;101185.31;;;18.93;100.00
41250;BME280;26984;59.928;30.306;2022-07-21T00:46:52;101185.88;;;18.95;100.00
41250;BME280;26984;59.928;30.306;2022-07-21T00:49:20;101182.28;;;18.89;100.00
41250;BME280;26984;59.928;30.306;2022-07-21T00:51:49;101194.56;;;18.92;100.00
41250;BME280;26984;59.928;30.306;2022-07-21T00:54:17;101194.88;;;18.96;100.00
41250;BME280;26984;59.928;30.306;2022-07-21T00:56:45;101197.28;;;18.92;100.00
41250;BME280;26984;59.928;30.306;2022-07-21T00:59:13;101188.56;;;18.90;100.00
41250;BME280;26984;59.928;30.306;2022-07-21T01:01:42;101197.19;;;18.82;100.00
41250;BME280;26984;59.928;30.306;2022-07-21T01:04:09;101200.69;;;18.77;100.00
41250;BME280;26984;59.928;30.306;2022-07-21T01:06:37;101200.78;;;18.82;100.00
41250;BME280;26984;59.928;30.306;2022-07-21T01:09:06;101196.56;;;18.75;100.00
41250;BME280;26984;59.928;30.306;2022-07-21T01:11:33;101189.41;;;18.69;100.00
41250;BME280;26984;59.928;30.306;2022-07-21T01:14:02;101187.00;;;18.72;100.00
41250;BME280;26984;59.928;30.306;2022-07-21T01:16:29;101194.84;;;18.69;100.00
41250;BME280;26984;59.928;30.306;2022-07-21T01:18:57;101195.19;;;18.72;100.00
41250;BME280;26984;59.928;30.306;2022-07-21T01:21:31;101196.19;;;18.66;100.00
41250;BME280;26984;59.928;30.306;2022-07-21T01:23:58;101195.88;;;18.62;100.00
41250;BME280;26984;59.928;30.306;2022-07-21T01:26:27;101205.16;;;18.61;100.00
41250;BME280;26984;59.928;30.306;2022-07-21T01:28:55;101195.06;;;18.62;100.00
41250;BME280;26984;59.928;30.306;2022-07-21T01:31:22;101193.94;;;18.58;100.00
41250;BME280;26984;59.928;30.306;2022-07-21T01:33:50;101191.31;;;18.68;100.00
41250;BME280;26984;59.928;30.306;2022-07-21T01:36:18;101194.84;;;18.69;100.00
41250;BME280;26984;59.928;30.306;2022-07-21T01:38:47;101190.47;;;18.67;100.00
41250;BME280;26984;59.928;30.306;2022-07-21T01:41:31;101182.69;;;18.76;100.00
41250;BME280;26984;59.928;30.306;2022-07-21T01:44:00;101182.28;;;18.67;100.00
41250;BME280;26984;59.928;30.306;2022-07-21T01:46:28;101183.38;;;18.66;100.00
41250;BME280;26984;59.928;30.306;2022-07-21T01:48:56;101181.13;;;18.63;100.00
41250;BME280;26984;59.928;30.306;2022-07-21T01:51:24;101181.72;;;18.65;100.00
41250;BME280;26984;59.928;30.306;2022-07-21T01:53:53;101188.00;;;18.66;100.00
41250;BME280;26984;59.928;30.306;2022-07-21T01:56:22;101187.84;;;18.73;100.00
41250;BME280;26984;59.928;30.306;2022-07-21T01:58:50;101186.66;;;18.69;100.00
41250;BME280;26984;59.928;30.306;2022-07-21T02:01:18;101198.13;;;18.71;100.00
41250;BME280;26984;59.928;30.306;2022-07-21T02:03:47;101192.56;;;18.82;100.00
41250;BME280;26984;59.928;30.306;2022-07-21T02:06:15;101195.31;;;18.82;100.00
41250;BME280;26984;59.928;30.306;2022-07-21T02:08:42;101196.94;;;18.83;100.00
41250;BME280;26984;59.928;30.306;2022-07-21T02:11:12;101196.94;;;18.83;100.00
41250;BME280;26984;59.928;30.306;2022-07-21T02:13:40;101206.03;;;18.89;100.00
41250;BME280;26984;59.928;30.306;2022-07-21T02:16:07;101202.22;;;18.90;100.00
41250;BME280;26984;59.928;30.306;2022-07-21T02:18:35;101203.28;;;18.89;100.00
41250;BME280;26984;59.928;30.306;2022-07-21T02:21:03;101202.75;;;18.92;100.00
41250;BME280;26984;59.928;30.306;2022-07-21T02:23:31;101204.53;;;19.03;100.00
41250;BME280;26984;59.928;30.306;2022-07-21T02:25:59;101198.78;;;19.05;100.00
41250;BME280;26984;59.928;30.306;2022-07-21T02:28:28;101214.38;;;19.09;100.00
41250;BME280;26984;59.928;30.306;2022-07-21T02:30:55;101198.88;;;19.15;100.00
41250;BME280;26984;59.928;30.306;2022-07-21T02:33:23;101207.09;;;19.15;100.00
41250;BME280;26984;59.928;30.306;2022-07-21T02:35:50;101217.72;;;19.17;100.00
41250;BME280;26984;59.928;30.306;2022-07-21T02:38:18;101195.13;;;19.21;100.00
41250;BME280;26984;59.928;30.306;2022-07-21T02:40:45;101207.69;;;19.22;100.00
41250;BME280;26984;59.928;30.306;2022-07-21T02:43:13;101210.44;;;19.27;100.00
41250;BME280;26984;59.928;30.306;2022-07-21T02:45:41;101222.19;;;19.28;100.00
41250;BME280;26984;59.928;30.306;2022-07-21T02:48:10;101215.69;;;19.34;100.00
41250;BME280;26984;59.928;30.306;2022-07-21T02:50:39;101213.88;;;19.45;100.00
41250;BME280;26984;59.928;30.306;2022-07-21T02:53:07;101221.22;;;19.39;100.00
41250;BME280;26984;59.928;30.306;2022-07-21T02:55:35;101214.44;;;19.47;100.00
41250;BME280;26984;59.928;30.306;2022-07-21T02:58:07;101222.66;;;19.47;100.00
41250;BME280;26984;59.928;30.306;2022-07-21T03:00:35;101205.97;;;19.48;100.00
41250;BME280;26984;59.928;30.306;2022-07-21T03:03:04;101209.00;;;19.52;100.00
41250;BME280;26984;59.928;30.306;2022-07-21T03:05:31;101218.63;;;19.59;100.00
41250;BME280;26984;59.928;30.306;2022-07-21T03:07:59;101216.72;;;19.60;100.00
41250;BME280;26984;59.928;30.306;2022-07-21T03:10:26;101221.94;;;19.61;100.00
41250;BME280;26984;59.928;30.306;2022-07-21T03:12:54;101231.31;;;19.71;100.00
41250;BME280;26984;59.928;30.306;2022-07-21T03:15:21;101227.50;;;19.72;100.00
41250;BME280;26984;59.928;30.306;2022-07-21T03:17:48;101219.91;;;19.79;100.00
41250;BME280;26984;59.928;30.306;2022-07-21T03:20:17;101227.59;;;19.87;100.00
41250;BME280;26984;59.928;30.306;2022-07-21T03:22:45;101234.16;;;19.86;100.00
41250;BME280;26984;59.928;30.306;2022-07-21T03:25:12;101226.50;;;19.88;100.00
41250;BME280;26984;59.928;30.306;2022-07-21T03:27:39;101220.81;;;19.95;100.00
41250;BME280;26984;59.928;30.306;2022-07-21T03:30:07;101235.88;;;20.02;100.00
41250;BME280;26984;59.928;30.306;2022-07-21T03:32:35;101229.59;;;19.97;100.00
41250;BME280;26984;59.928;30.306;2022-07-21T03:35:03;101234.25;;;20.01;100.00
41250;BME280;26984;59.928;30.306;2022-07-21T03:37:34;101232.09;;;20.03;100.00
41250;BME280;26984;59.928;30.306;2022-07-21T03:40:07;101219.00;;;20.16;100.00
41250;BME280;26984;59.928;30.306;2022-07-21T03:42:34;101242.00;;;20.15;100.00
41250;BME280;26984;59.928;30.306;2022-07-21T03:45:02;101227.25;;;20.21;100.00
41250;BME280;26984;59.928;30.306;2022-07-21T03:47:29;101233.53;;;20.21;100.00
41250;BME280;26984;59.928;30.306;2022-07-21T03:49:57;101235.19;;;20.27;100.00
41250;BME280;26984;59.928;30.306;2022-07-21T03:52:24;101236.88;;;20.28;100.00
41250;BME280;26984;59.928;30.306;2022-07-21T03:54:53;101230.88;;;20.31;100.00
41250;BME280;26984;59.928;30.306;2022-07-21T03:57:34;101241.25;;;20.29;100.00
41250;BME280;26984;59.928;30.306;2022-07-21T04:00:02;101247.28;;;20.37;100.00
41250;BME280;26984;59.928;30.306;2022-07-21T04:02:37;101236.63;;;20.40;100.00
41250;BME280;26984;59.928;30.306;2022-07-21T04:05:04;101241.00;;;20.36;100.00
41250;BME280;26984;59.928;30.306;2022-07-21T04:07:32;101247.88;;;20.44;100.00
41250;BME280;26984;59.928;30.306;2022-07-21T04:10:01;101244.09;;;20.50;100.00
41250;BME280;26984;59.928;30.306;2022-07-21T04:12:28;101250.69;;;20.59;100.00
41250;BME280;26984;59.928;30.306;2022-07-21T04:14:55;101248.00;;;20.64;100.00
41250;BME280;26984;59.928;30.306;2022-07-21T04:17:23;101251.81;;;20.68;100.00
41250;BME280;26984;59.928;30.306;2022-07-21T04:19:50;101258.41;;;20.72;100.00
41250;BME280;26984;59.928;30.306;2022-07-21T04:22:17;101258.97;;;20.85;100.00
41250;BME280;26984;59.928;30.306;2022-07-21T04:24:45;101260.38;;;20.87;100.00
41250;BME280;26984;59.928;30.306;2022-07-21T04:27:13;101270.25;;;20.93;100.00
41250;BME280;26984;59.928;30.306;2022-07-21T04:29:41;101267.47;;;20.88;100.00
41250;BME280;26984;59.928;30.306;2022-07-21T04:32:08;101268.59;;;20.92;100.00
41250;BME280;26984;59.928;30.306;2022-07-21T04:34:35;101271.63;;;21.01;100.00
41250;BME280;26984;59.928;30.306;2022-07-21T04:37:03;101277.13;;;21.06;100.00
41250;BME280;26984;59.928;30.306;2022-07-21T04:39:30;101257.41;;;21.04;100.00
41250;BME280;26984;59.928;30.306;2022-07-21T04:41:58;101265.91;;;21.08;100.00
41250;BME280;26984;59.928;30.306;2022-07-21T04:44:26;101264.81;;;21.14;100.00
41250;BME280;26984;59.928;30.306;2022-07-21T04:46:53;101267.31;;;21.20;100.00
41250;BME280;26984;59.928;30.306;2022-07-21T04:49:21;101265.63;;;21.19;100.00
41250;BME280;26984;59.928;30.306;2022-07-21T04:51:48;101254.97;;;21.28;100.00
41250;BME280;26984;59.928;30.306;2022-07-21T04:54:16;101261.03;;;21.35;100.00
41250;BME280;26984;59.928;30.306;2022-07-21T04:56:43;101261.84;;;21.36;100.00
41250;BME280;26984;59.928;30.306;2022-07-21T04:59:11;101252.28;;;21.38;100.00
41250;BME280;26984;59.928;30.306;2022-07-21T05:01:40;101262.41;;;21.43;100.00
41250;BME280;26984;59.928;30.306;2022-07-21T05:04:08;101266.22;;;21.52;100.00
41250;BME280;26984;59.928;30.306;2022-07-21T05:06:35;101271.72;;;21.62;100.00
41250;BME280;26984;59.928;30.306;2022-07-21T05:09:02;101268.41;;;21.75;100.00
41250;BME280;26984;59.928;30.306;2022-07-21T05:11:30;101271.97;;;21.76;100.00
41250;BME280;26984;59.928;30.306;2022-07-21T05:13:57;101277.47;;;21.81;100.00
41250;BME280;26984;59.928;30.306;2022-07-21T05:16:25;101290.63;;;21.84;100.00
41250;BME280;26984;59.928;30.306;2022-07-21T05:18:53;101277.19;;;21.83;100.00
41250;BME280;26984;59.928;30.306;2022-07-21T05:21:21;101280.22;;;21.81;100.00
41250;BME280;26984;59.928;30.306;2022-07-21T05:23:48;101281.56;;;21.89;100.00
41250;BME280;26984;59.928;30.306;2022-07-21T05:26:15;101281.84;;;21.92;100.00
41250;BME280;26984;59.928;30.306;2022-07-21T05:28:43;101281.28;;;22.00;100.00
41250;BME280;26984;59.928;30.306;2022-07-21T05:31:10;101274.41;;;22.03;100.00
41250;BME280;26984;59.928;30.306;2022-07-21T05:33:37;101280.16;;;22.02;100.00
41250;BME280;26984;59.928;30.306;2022-07-21T05:36:06;101277.72;;;22.00;100.00
41250;BME280;26984;59.928;30.306;2022-07-21T05:38:34;101272.75;;;22.07;100.00
41250;BME280;26984;59.928;30.306;2022-07-21T05:41:01;101280.44;;;22.10;100.00
41250;BME280;26984;59.928;30.306;2022-07-21T05:43:29;101277.16;;;22.08;100.00
41250;BME280;26984;59.928;30.306;2022-07-21T05:45:56;101281.03;;;22.02;100.00
41250;BME280;26984;59.928;30.306;2022-07-21T05:48:24;101279.66;;;21.99;100.00
41250;BME280;26984;59.928;30.306;2022-07-21T05:50:51;101290.88;;;22.08;100.00
41250;BME280;26984;59.928;30.306;2022-07-21T05:53:20;101293.34;;;22.25;100.00
41250;BME280;26984;59.928;30.306;2022-07-21T05:55:48;101287.22;;;22.43;100.00
41250;BME280;26984;59.928;30.306;2022-07-21T05:58:15;101287.47;;;22.57;100.00
41250;BME280;26984;59.928;30.306;2022-07-21T06:00:44;101292.63;;;22.69;100.00
41250;BME280;26984;59.928;30.306;2022-07-21T06:03:33;101293.38;;;22.85;100.00
41250;BME280;26984;59.928;30.306;2022-07-21T06:06:00;101286.44;;;23.03;100.00
41250;BME280;26984;59.928;30.306;2022-07-21T06:08:29;101291.09;;;23.07;100.00
41250;BME280;26984;59.928;30.306;2022-07-21T06:10:57;101291.09;;;23.07;99.58
41250;BME280;26984;59.928;30.306;2022-07-21T06:13:24;101293.25;;;23.10;100.00
41250;BME280;26984;59.928;30.306;2022-07-21T06:15:52;101296.22;;;23.24;100.00
41250;BME280;26984;59.928;30.306;2022-07-21T06:18:20;101303.22;;;23.40;98.46
41250;BME280;26984;59.928;30.306;2022-07-21T06:20:47;101307.25;;;23.53;96.80
41250;BME280;26984;59.928;30.306;2022-07-21T06:23:14;101295.72;;;23.51;96.62
41250;BME280;26984;59.928;30.306;2022-07-21T06:25:43;101296.22;;;23.58;96.73
41250;BME280;26984;59.928;30.306;2022-07-21T06:28:11;101296.19;;;23.63;96.12
41250;BME280;26984;59.928;30.306;2022-07-21T06:30:38;101304.69;;;23.62;95.71
41250;BME280;26984;59.928;30.306;2022-07-21T06:33:06;101302.00;;;23.57;96.40
41250;BME280;26984;59.928;30.306;2022-07-21T06:35:33;101295.59;;;23.66;96.17
41250;BME280;26984;59.928;30.306;2022-07-21T06:38:01;101294.75;;;23.71;95.62
41250;BME280;26984;59.928;30.306;2022-07-21T06:40:28;101293.94;;;23.71;96.23
41250;BME280;26984;59.928;30.306;2022-07-21T06:42:57;101302.63;;;23.83;96.06
41250;BME280;26984;59.928;30.306;2022-07-21T06:45:25;101298.66;;;23.94;94.87
41250;BME280;26984;59.928;30.306;2022-07-21T06:47:58;101307.94;;;24.03;94.40
41250;BME280;26984;59.928;30.306;2022-07-21T06:50:26;101300.13;;;24.16;93.29
41250;BME280;26984;59.928;30.306;2022-07-21T06:52:53;101303.13;;;24.19;93.32
41250;BME280;26984;59.928;30.306;2022-07-21T06:55:20;101301.13;;;24.25;93.29
41250;BME280;26984;59.928;30.306;2022-07-21T06:57:48;101296.31;;;24.35;92.93
41250;BME280;26984;59.928;30.306;2022-07-21T07:00:17;101309.50;;;24.38;92.08
41250;BME280;26984;59.928;30.306;2022-07-21T07:02:44;101311.16;;;24.40;91.54
41250;BME280;26984;59.928;30.306;2022-07-21T07:05:12;101308.56;;;24.24;92.37
41250;BME280;26984;59.928;30.306;2022-07-21T07:07:39;101307.28;;;24.17;93.36
41250;BME280;26984;59.928;30.306;2022-07-21T07:10:07;101314.31;;;24.28;93.12
41250;BME280;26984;59.928;30.306;2022-07-21T07:12:35;101308.16;;;24.41;92.11
41250;BME280;26984;59.928;30.306;2022-07-21T07:15:03;101318.53;;;24.20;92.41
41250;BME280;26984;59.928;30.306;2022-07-21T07:17:31;101318.38;;;24.06;93.45
41250;BME280;26984;59.928;30.306;2022-07-21T07:19:59;101318.97;;;24.03;93.29
41250;BME280;26984;59.928;30.306;2022-07-21T07:22:26;101317.94;;;23.94;94.60
41250;BME280;26984;59.928;30.306;2022-07-21T07:24:53;101315.88;;;24.10;94.15
41250;BME280;26984;59.928;30.306;2022-07-21T07:27:21;101313.69;;;24.07;94.55
41250;BME280;26984;59.928;30.306;2022-07-21T07:29:48;101309.78;;;24.13;93.47
41250;BME280;26984;59.928;30.306;2022-07-21T07:32:15;101308.19;;;24.07;94.48
41250;BME280;26984;59.928;30.306;2022-07-21T07:34:44;101313.50;;;24.27;94.17
41250;BME280;26984;59.928;30.306;2022-07-21T07:37:12;101308.38;;;24.45;92.94
41250;BME280;26984;59.928;30.306;2022-07-21T07:39:39;101315.44;;;24.51;92.99
41250;BME280;26984;59.928;30.306;2022-07-21T07:42:07;101327.94;;;24.67;92.14
41250;BME280;26984;59.928;30.306;2022-07-21T07:44:34;101324.47;;;24.80;90.89
41250;BME280;26984;59.928;30.306;2022-07-21T07:47:01;101328.13;;;24.95;89.66
41250;BME280;26984;59.928;30.306;2022-07-21T07:49:29;101332.88;;;24.89;89.37
41250;BME280;26984;59.928;30.306;2022-07-21T07:51:58;101333.44;;;24.67;90.15
41250;BME280;26984;59.928;30.306;2022-07-21T07:54:25;101336.63;;;24.55;90.94
41250;BME280;26984;59.928;30.306;2022-07-21T07:56:52;101336.19;;;24.43;91.19
41250;BME280;26984;59.928;30.306;2022-07-21T07:59:20;101322.38;;;24.48;91.38
41250;BME280;26984;59.928;30.306;2022-07-21T08:01:47;101330.16;;;24.65;90.53
41250;BME280;26984;59.928;30.306;2022-07-21T08:04:14;101328.63;;;24.54;90.87
41250;BME280;26984;59.928;30.306;2022-07-21T08:06:42;101325.59;;;24.55;90.75
41250;BME280;26984;59.928;30.306;2022-07-21T08:09:10;101321.13;;;24.59;90.92
41250;BME280;26984;59.928;30.306;2022-07-21T08:11:38;101328.41;;;24.74;90.12
41250;BME280;26984;59.928;30.306;2022-07-21T08:14:05;101333.13;;;24.69;90.24
41250;BME280;26984;59.928;30.306;2022-07-21T08:16:33;101334.56;;;24.66;90.66
41250;BME280;26984;59.928;30.306;2022-07-21T08:19:01;101335.03;;;24.73;90.23
41250;BME280;26984;59.928;30.306;2022-07-21T08:21:29;101338.88;;;24.72;90.36
41250;BME280;26984;59.928;30.306;2022-07-21T08:23:56;101337.13;;;24.57;91.02
41250;BME280;26984;59.928;30.306;2022-07-21T08:26:26;101343.34;;;24.68;90.43
41250;BME280;26984;59.928;30.306;2022-07-21T08:28:53;101343.09;;;24.89;89.31
41250;BME280;26984;59.928;30.306;2022-07-21T08:31:21;101347.84;;;24.83;88.90
41250;BME280;26984;59.928;30.306;2022-07-21T08:33:49;101337.78;;;24.73;89.58
41250;BME280;26984;59.928;30.306;2022-07-21T08:36:17;101345.94;;;24.59;93.14
41250;BME280;26984;59.928;30.306;2022-07-21T08:38:44;101348.38;;;24.61;94.13
41250;BME280;26984;59.928;30.306;2022-07-21T08:41:12;101347.34;;;24.57;94.29
41250;BME280;26984;59.928;30.306;2022-07-21T08:43:41;101339.97;;;24.52;94.82
41250;BME280;26984;59.928;30.306;2022-07-21T08:46:08;101342.56;;;24.38;95.27
41250;BME280;26984;59.928;30.306;2022-07-21T08:48:36;101346.63;;;24.17;96.25
41250;BME280;26984;59.928;30.306;2022-07-21T08:51:03;101348.31;;;24.13;96.29
41250;BME280;26984;59.928;30.306;2022-07-21T08:53:30;101353.28;;;24.11;96.50
41250;BME280;26984;59.928;30.306;2022-07-21T08:55:58;101349.78;;;24.05;96.61
41250;BME280;26984;59.928;30.306;2022-07-21T08:58:25;101346.81;;;24.26;95.84
41250;BME280;26984;59.928;30.306;2022-07-21T09:00:54;101346.56;;;24.22;95.31
41250;BME280;26984;59.928;30.306;2022-07-21T09:03:22;101340.81;;;24.19;95.64
41250;BME280;26984;59.928;30.306;2022-07-21T09:08:43;101341.91;;;24.23;95.89
41250;BME280;26984;59.928;30.306;2022-07-21T09:11:12;101333.41;;;24.19;96.04
41250;BME280;26984;59.928;30.306;2022-07-21T09:13:40;101342.19;;;24.21;96.24
41250;BME280;26984;59.928;30.306;2022-07-21T09:16:09;101350.97;;;24.23;95.92
41250;BME280;26984;59.928;30.306;2022-07-21T09:18:46;101348.25;;;24.18;96.66
41250;BME280;26984;59.928;30.306;2022-07-21T09:21:15;101346.09;;;24.15;96.88
41250;BME280;26984;59.928;30.306;2022-07-21T09:23:42;101349.84;;;24.24;96.93
41250;BME280;26984;59.928;30.306;2022-07-21T09:26:09;101346.78;;;24.31;96.12
41250;BME280;26984;59.928;30.306;2022-07-21T09:28:37;101360.06;;;24.24;96.74
41250;BME280;26984;59.928;30.306;2022-07-21T09:31:05;101351.31;;;24.17;97.31
41250;BME280;26984;59.928;30.306;2022-07-21T09:33:35;101347.59;;;24.31;96.74
41250;BME280;26984;59.928;30.306;2022-07-21T09:36:04;101340.22;;;24.27;97.07
41250;BME280;26984;59.928;30.306;2022-07-21T09:38:32;101345.03;;;24.40;95.99
41250;BME280;26984;59.928;30.306;2022-07-21T09:41:04;101347.50;;;24.42;96.23
41250;BME280;26984;59.928;30.306;2022-07-21T09:43:33;101356.75;;;24.51;95.91
41250;BME280;26984;59.928;30.306;2022-07-21T09:46:03;101347.97;;;24.49;95.47
41250;BME280;26984;59.928;30.306;2022-07-21T09:48:35;101343.94;;;24.41;96.23
41250;BME280;26984;59.928;30.306;2022-07-21T09:53:52;101343.44;;;24.58;95.37
41250;BME280;26984;59.928;30.306;2022-07-21T09:56:20;101347.53;;;24.66;94.36
41250;BME280;26984;59.928;30.306;2022-07-21T09:58:49;101352.88;;;24.76;94.13
41250;BME280;26984;59.928;30.306;2022-07-21T10:01:16;101359.59;;;24.70;93.80
41250;BME280;26984;59.928;30.306;2022-07-21T10:03:46;101353.97;;;24.80;93.20
41250;BME280;26984;59.928;30.306;2022-07-21T10:06:14;101357.53;;;24.80;92.96
41250;BME280;26984;59.928;30.306;2022-07-21T10:08:42;101354.19;;;24.83;92.88
41250;BME280;26984;59.928;30.306;2022-07-21T10:11:10;101351.56;;;24.73;93.20
41250;BME280;26984;59.928;30.306;2022-07-21T10:13:38;101352.03;;;24.80;92.80
41250;BME280;26984;59.928;30.306;2022-07-21T10:16:07;101346.97;;;24.88;92.58
41250;BME280;26984;59.928;30.306;2022-07-21T10:18:36;101350.81;;;24.87;92.41
41250;BME280;26984;59.928;30.306;2022-07-21T10:21:08;101342.41;;;24.78;93.27
41250;BME280;26984;59.928;30.306;2022-07-21T10:23:39;101344.81;;;24.84;93.54
41250;BME280;26984;59.928;30.306;2022-07-21T10:26:08;101347.28;;;25.05;91.86
41250;BME280;26984;59.928;30.306;2022-07-21T10:28:36;101348.50;;;25.18;91.23
41250;BME280;26984;59.928;30.306;2022-07-21T10:31:14;101352.50;;;25.06;91.93
41250;BME280;26984;59.928;30.306;2022-07-21T10:33:56;101348.22;;;25.19;91.57
41250;BME280;26984;59.928;30.306;2022-07-21T10:36:44;101344.66;;;25.19;91.28
41250;BME280;26984;59.928;30.306;2022-07-21T10:39:22;101347.56;;;25.27;91.24
41250;BME280;26984;59.928;30.306;2022-07-21T10:41:50;101342.69;;;25.57;89.70
41250;BME280;26984;59.928;30.306;2022-07-21T10:47:04;101345.09;;;25.45;89.88
41250;BME280;26984;59.928;30.306;2022-07-21T10:49:41;101332.88;;;25.32;90.76
41250;BME280;26984;59.928;30.306;2022-07-21T10:57:35;101345.44;;;25.57;89.96
41250;BME280;26984;59.928;30.306;2022-07-21T11:00:22;101345.66;;;25.61;89.11
41250;BME280;26984;59.928;30.306;2022-07-21T11:02:51;101337.47;;;25.55;89.79
41250;BME280;26984;59.928;30.306;2022-07-21T11:05:19;101341.59;;;25.39;91.02
41250;BME280;26984;59.928;30.306;2022-07-21T11:10:34;101346.56;;;25.56;89.51
41250;BME280;26984;59.928;30.306;2022-07-21T11:13:04;101343.44;;;25.63;89.33
41250;BME280;26984;59.928;30.306;2022-07-21T11:15:47;101350.22;;;25.70;88.78
41250;BME280;26984;59.928;30.306;2022-07-21T11:18:16;101340.28;;;25.88;87.58
41250;BME280;26984;59.928;30.306;2022-07-21T11:20:58;101348.38;;;25.98;86.99
41250;BME280;26984;59.928;30.306;2022-07-21T11:23:33;101356.75;;;25.93;86.60
41250;BME280;26984;59.928;30.306;2022-07-21T11:26:01;101349.00;;;25.95;86.97
41250;BME280;26984;59.928;30.306;2022-07-21T11:28:30;101355.25;;;26.01;86.71
41250;BME280;26984;59.928;30.306;2022-07-21T11:31:05;101345.94;;;26.11;86.38
41250;BME280;26984;59.928;30.306;2022-07-21T11:33:33;101333.09;;;26.20;85.76
41250;BME280;26984;59.928;30.306;2022-07-21T11:36:02;101335.13;;;26.14;86.15
41250;BME280;26984;59.928;30.306;2022-07-21T11:38:29;101336.38;;;26.22;85.95
41250;BME280;26984;59.928;30.306;2022-07-21T11:41:11;101347.28;;;26.13;86.01
41250;BME280;26984;59.928;30.306;2022-07-21T11:43:41;101344.88;;;26.25;85.32
41250;BME280;26984;59.928;30.306;2022-07-21T11:46:08;101348.03;;;26.19;85.27
41250;BME280;26984;59.928;30.306;2022-07-21T11:48:35;101356.09;;;26.15;85.53
41250;BME280;26984;59.928;30.306;2022-07-21T11:51:03;101347.81;;;26.15;86.15
41250;BME280;26984;59.928;30.306;2022-07-21T11:53:31;101349.38;;;26.35;85.81
41250;BME280;26984;59.928;30.306;2022-07-21T11:55:59;101344.50;;;26.60;84.08
41250;BME280;26984;59.928;30.306;2022-07-21T11:58:26;101341.63;;;26.79;82.84
41250;BME280;26984;59.928;30.306;2022-07-21T12:01:05;101337.81;;;26.88;81.21
41250;BME280;26984;59.928;30.306;2022-07-21T12:03:32;101337.13;;;26.83;82.11
41250;BME280;26984;59.928;30.306;2022-07-21T12:06:00;101343.28;;;26.80;82.08
41250;BME280;26984;59.928;30.306;2022-07-21T12:08:30;101335.19;;;26.69;83.02
41250;BME280;26984;59.928;30.306;2022-07-21T12:11:04;101339.28;;;26.58;82.99
41250;BME280;26984;59.928;30.306;2022-07-21T12:16:15;101338.22;;;26.95;81.39
41250;BME280;26984;59.928;30.306;2022-07-21T12:18:43;101339.56;;;26.98;81.55
41250;BME280;26984;59.928;30.306;2022-07-21T12:21:11;101337.06;;;27.10;79.07
41250;BME280;26984;59.928;30.306;2022-07-21T12:23:38;101333.47;;;27.24;78.37
41250;BME280;26984;59.928;30.306;2022-07-21T12:26:06;101342.75;;;27.41;79.66
41250;BME280;26984;59.928;30.306;2022-07-21T12:28:43;101342.69;;;27.33;80.02
41250;BME280;26984;59.928;30.306;2022-07-21T12:31:13;101344.19;;;27.39;79.00
41250;BME280;26984;59.928;30.306;2022-07-21T12:33:43;101336.16;;;27.51;77.72
41250;BME280;26984;59.928;30.306;2022-07-21T12:36:10;101334.91;;;27.57;76.57
41250;BME280;26984;59.928;30.306;2022-07-21T12:38:38;101334.53;;;27.73;76.29
41250;BME280;26984;59.928;30.306;2022-07-21T12:41:07;101335.31;;;27.87;75.82
41250;BME280;26984;59.928;30.306;2022-07-21T12:43:34;101332.91;;;27.94;76.96
41250;BME280;26984;59.928;30.306;2022-07-21T12:46:02;101328.19;;;27.95;74.58
41250;BME280;26984;59.928;30.306;2022-07-21T12:48:35;101332.09;;;27.93;73.21
41250;BME280;26984;59.928;30.306;2022-07-21T12:51:09;101321.50;;;27.73;74.76
41250;BME280;26984;59.928;30.306;2022-07-21T12:53:41;101327.38;;;27.94;75.31
41250;BME280;26984;59.928;30.306;2022-07-21T12:56:09;101329.94;;;27.90;75.95
41250;BME280;26984;59.928;30.306;2022-07-21T12:58:37;101324.72;;;27.89;76.26
41250;BME280;26984;59.928;30.306;2022-07-21T13:01:05;101326.28;;;27.81;76.51